Time;durP1;ratioP1;P1;durP2;ratioP2;P2;SDS_P1;SDS_P2;PMS_P1;PMS_P2;Temp;Humidity;BMP_temperature;BMP_pressure;BME280_temperature;BME280_humidity;BME280_pressure;Samples;Min_cycle;Max_cycle;Signal;HPM_P1;HPM_P2
2023/09/01 00:00:04;;;;;;;11.07;4.25;;;;;;;14.98;76.45;99510.63;5083993;28;20614;-85
2023/09/01 00:02:30;;;;;;;14.23;5.28;;;;;;;15.05;75.91;99516.53;5083942;28;20463;-85
2023/09/01 00:04:55;;;;;;;14.90;4.65;;;;;;;15.03;75.65;99517.97;5083304;28;20036;-83
2023/09/01 00:07:21;;;;;;;12.48;5.28;;;;;;;14.95;76.60;99502.97;5083179;28;20059;-85
2023/09/01 00:09:46;;;;;;;16.17;4.80;;;;;;;15.09;76.33;99500.31;5083449;28;20052;-84
2023/09/01 00:12:11;;;;;;;10.97;5.20;;;;;;;15.11;75.72;99509.00;5083144;28;20047;-83
2023/09/01 00:14:36;;;;;;;10.07;4.22;;;;;;;15.10;75.91;99507.41;5083108;28;20256;-84
2023/09/01 00:17:03;;;;;;;16.40;4.40;;;;;;;15.13;76.11;99500.50;5083264;28;20127;-83
2023/09/01 00:19:28;;;;;;;18.70;5.90;;;;;;;15.13;75.89;99501.28;5083474;28;20030;-83
2023/09/01 00:21:53;;;;;;;11.00;4.60;;;;;;;15.07;75.78;99501.72;5083016;28;20036;-82
2023/09/01 00:24:19;;;;;;;8.83;4.10;;;;;;;15.03;76.31;99501.50;5082540;28;20114;-83
2023/09/01 00:26:44;;;;;;;12.18;4.90;;;;;;;15.02;75.86;99511.66;5083491;28;20249;-83
2023/09/01 00:29:09;;;;;;;12.32;4.57;;;;;;;15.03;75.58;99507.00;5083005;28;20124;-82
2023/09/01 00:31:35;;;;;;;15.33;4.70;;;;;;;15.04;75.66;99508.59;5082786;28;20190;-83
2023/09/01 00:34:00;;;;;;;8.00;3.90;;;;;;;15.00;75.25;99518.56;5082526;28;20251;-83
2023/09/01 00:36:25;;;;;;;10.82;4.90;;;;;;;15.00;75.46;99522.13;5080966;28;20122;-83
2023/09/01 00:38:51;;;;;;;8.90;3.53;;;;;;;14.93;75.46;99528.00;5082823;28;20113;-83
2023/09/01 00:41:16;;;;;;;10.37;4.00;;;;;;;14.89;76.24;99523.41;5082783;28;20449;-83
2023/09/01 00:43:41;;;;;;;11.10;4.25;;;;;;;14.98;75.99;99513.38;5082501;28;20359;-83
2023/09/01 00:46:07;;;;;;;30.83;5.37;;;;;;;15.11;75.62;99511.75;5082681;28;20036;-82
2023/09/01 00:48:32;;;;;;;10.70;5.15;;;;;;;15.32;74.84;99502.34;5083159;28;20745;-82
2023/09/01 00:50:58;;;;;;;13.43;5.95;;;;;;;15.36;74.07;99508.84;5081521;28;20055;-83
2023/09/01 00:53:26;;;;;;;10.05;4.25;;;;;;;15.37;74.18;99505.00;5082103;28;20032;-77
2023/09/01 00:55:52;;;;;;;16.02;5.38;;;;;;;15.38;74.04;99503.88;5084085;28;20051;-76
2023/09/01 00:58:18;;;;;;;9.90;4.47;;;;;;;15.44;73.32;99493.63;5086334;28;20059;-76
2023/09/01 01:00:44;;;;;;;8.20;4.15;;;;;;;15.32;73.83;99486.69;5089237;28;20477;-75
2023/09/01 01:03:10;;;;;;;14.10;4.88;;;;;;;15.23;74.17;99483.84;5092209;28;20028;-83
2023/09/01 01:05:54;;;;;;;12.52;5.10;;;;;;;15.10;74.08;99501.91;5092007;28;20119;-83
2023/09/01 01:08:48;;;;;;;12.25;4.60;;;;;;;14.95;75.06;99494.75;5091950;28;20597;-83
2023/09/01 01:11:25;;;;;;;;;;;;;;;14.81;75.19;99498.25;5089189;28;20408;-83
2023/09/01 01:13:55;;;;;;;13.13;4.20;;;;;;;14.79;75.28;99496.91;5092785;28;19930;-83
2023/09/01 01:16:23;;;;;;;10.65;4.72;;;;;;;14.74;75.92;99492.34;5093954;28;20036;-83
2023/09/01 01:18:51;;;;;;;13.30;4.15;;;;;;;14.73;75.91;99493.44;5094582;28;20028;-81
2023/09/01 01:21:26;;;;;;;11.32;3.92;;;;;;;14.70;75.93;99485.81;5093963;28;20024;-81
2023/09/01 01:23:53;;;;;;;11.07;4.93;;;;;;;14.70;75.84;99485.81;5094707;28;20073;-80
2023/09/01 01:26:19;;;;;;;11.15;4.50;;;;;;;14.64;76.03;99484.28;5095637;28;20086;-81
2023/09/01 01:28:44;;;;;;;16.08;5.15;;;;;;;14.57;76.70;99488.19;5095535;28;20032;-81
2023/09/01 01:31:10;;;;;;;11.65;4.57;;;;;;;14.58;76.61;99487.06;5093243;28;20031;-81
2023/09/01 01:33:50;;;;;;;9.98;4.75;;;;;;;14.60;76.40;99484.06;5092727;28;20069;-81
2023/09/01 01:36:37;;;;;;;10.30;4.93;;;;;;;14.63;76.66;99479.88;5092018;28;20044;-80
2023/09/01 01:39:15;;;;;;;16.48;4.95;;;;;;;14.67;76.41;99475.44;5092695;28;20115;-79
2023/09/01 01:41:52;;;;;;;13.75;6.05;;;;;;;14.69;76.47;99481.44;5087168;28;20031;-81
2023/09/01 01:44:21;;;;;;;13.90;5.53;;;;;;;14.61;76.57;99482.09;5093117;28;20024;-81
2023/09/01 01:46:47;;;;;;;9.63;5.03;;;;;;;14.61;76.52;99479.38;5093410;28;20039;-80
2023/09/01 01:49:14;;;;;;;9.38;6.03;;;;;;;14.58;77.09;99481.59;5094569;28;20027;-81
2023/09/01 01:51:39;;;;;;;12.13;5.78;;;;;;;14.57;76.69;99479.16;5094992;28;20048;-81
2023/09/01 01:54:05;;;;;;;16.45;6.15;;;;;;;14.62;76.66;99481.00;5094755;28;20024;-81
2023/09/01 01:56:31;;;;;;;10.30;5.28;;;;;;;14.62;76.51;99483.75;5095316;28;20024;-81
2023/09/01 01:58:56;;;;;;;17.50;7.32;;;;;;;14.58;76.43;99475.31;5094747;28;20032;-81
2023/09/01 02:01:22;;;;;;;10.07;5.10;;;;;;;14.59;76.89;99471.44;5093516;28;20036;-81
2023/09/01 02:03:47;;;;;;;8.93;4.90;;;;;;;14.58;75.84;99476.09;5093443;28;20614;-74
2023/09/01 02:06:12;;;;;;;14.67;5.60;;;;;;;14.56;75.99;99489.31;5091538;28;20120;-73
2023/09/01 02:08:38;;;;;;;11.25;5.53;;;;;;;14.51;76.40;99483.91;5092258;28;20784;-72
2023/09/01 02:11:04;;;;;;;9.20;4.60;;;;;;;14.55;75.93;99476.72;5092000;28;20024;-72
2023/09/01 02:13:30;;;;;;;14.32;5.97;;;;;;;14.56;76.42;99477.53;5091517;28;20248;-76
2023/09/01 02:15:55;;;;;;;9.98;6.10;;;;;;;14.58;76.16;99478.84;5092005;28;20020;-73
2023/09/01 02:18:21;;;;;;;14.98;5.80;;;;;;;14.57;76.10;99474.50;5091722;28;20066;-73
2023/09/01 02:20:46;;;;;;;13.55;6.82;;;;;;;14.53;76.34;99478.94;5091994;28;20072;-74
2023/09/01 02:23:16;;;;;;;16.05;5.63;;;;;;;14.52;76.39;99479.25;5092065;28;20023;-74
2023/09/01 02:25:42;;;;;;;12.55;5.55;;;;;;;14.49;76.24;99469.69;5091771;28;20424;-73
2023/09/01 02:28:07;;;;;;;10.60;4.93;;;;;;;14.53;76.31;99467.97;5091846;28;20052;-73
2023/09/01 02:30:33;;;;;;;12.70;4.60;;;;;;;14.57;76.54;99469.00;5092068;28;20032;-74
2023/09/01 02:32:58;;;;;;;9.25;4.15;;;;;;;14.75;75.95;99469.25;5091954;28;21533;-73
2023/09/01 02:35:23;;;;;;;10.37;5.33;;;;;;;14.75;75.63;99465.69;5091404;28;20024;-73
2023/09/01 02:37:49;;;;;;;10.37;4.63;;;;;;;14.71;76.01;99462.75;5092099;28;20319;-73
2023/09/01 02:40:15;;;;;;;8.63;4.18;;;;;;;14.79;76.27;99464.81;5091585;28;20774;-73
2023/09/01 02:42:41;;;;;;;14.77;4.10;;;;;;;14.81;75.84;99473.53;5091720;28;20024;-72
2023/09/01 02:45:10;;;;;;;8.48;4.20;;;;;;;14.92;75.69;99476.16;5091319;28;20118;-73
2023/09/01 02:47:37;;;;;;;7.65;4.28;;;;;;;15.02;75.62;99469.66;5091455;28;20473;-73
2023/09/01 02:50:04;;;;;;;9.98;3.95;;;;;;;15.20;74.85;99481.69;5083458;28;20028;-73
2023/09/01 02:52:30;;;;;;;10.90;4.25;;;;;;;15.28;74.66;99478.25;5088016;28;20111;-76
2023/09/01 02:54:55;;;;;;;12.18;4.25;;;;;;;15.31;74.71;99478.75;5083664;28;20118;-74
2023/09/01 02:57:21;;;;;;;9.50;4.90;;;;;;;15.39;74.31;99475.31;5088323;28;20020;-74
2023/09/01 02:59:46;;;;;;;10.68;3.97;;;;;;;15.39;74.75;99470.63;5090455;28;20050;-73
2023/09/01 03:02:12;;;;;;;10.88;4.15;;;;;;;15.43;74.56;99475.50;5091187;28;20023;-74
2023/09/01 03:04:37;;;;;;;9.25;4.70;;;;;;;15.41;74.48;99473.06;5091120;28;20036;-74
2023/09/01 03:07:02;;;;;;;9.65;4.50;;;;;;;15.51;74.41;99466.56;5090870;28;20064;-73
2023/09/01 03:09:28;;;;;;;7.28;4.07;;;;;;;15.57;74.28;99459.03;5091078;28;20055;-74
2023/09/01 03:11:53;;;;;;;9.00;4.20;;;;;;;15.60;74.15;99463.91;5090727;28;20103;-74
2023/09/01 03:14:19;;;;;;;8.98;3.88;;;;;;;15.61;74.58;99471.03;5090649;28;20182;-73
2023/09/01 03:16:44;;;;;;;10.95;4.20;;;;;;;15.61;74.56;99473.78;5093020;28;20020;-73
2023/09/01 03:19:09;;;;;;;11.23;4.10;;;;;;;15.62;74.46;99481.72;5093628;28;20024;-74
2023/09/01 03:21:35;;;;;;;8.27;4.50;;;;;;;15.60;75.09;99480.41;5090820;28;20052;-75
2023/09/01 03:24:00;;;;;;;9.57;4.43;;;;;;;15.54;75.65;99476.91;5089533;28;20039;-76
2023/09/01 03:26:28;;;;;;;9.88;5.18;;;;;;;15.46;75.90;99481.19;5083684;28;20032;-74
2023/09/01 03:28:54;;;;;;;14.07;5.03;;;;;;;15.48;75.88;99484.47;5081638;28;20416;-74
2023/09/01 03:31:19;;;;;;;10.02;5.70;;;;;;;15.43;75.65;99476.31;5083786;28;20031;-75
2023/09/01 03:33:44;;;;;;;13.83;5.67;;;;;;;15.36;75.95;99481.38;5083257;28;20221;-75
2023/09/01 03:36:10;;;;;;;10.52;6.22;;;;;;;15.31;76.16;99484.25;5083372;28;20253;-74
2023/09/01 03:38:36;;;;;;;16.52;5.70;;;;;;;15.31;76.24;99478.75;5083634;28;20493;-76
2023/09/01 03:41:02;;;;;;;12.95;5.63;;;;;;;15.35;76.01;99477.84;5083330;28;20035;-74
2023/09/01 03:43:28;;;;;;;14.50;6.40;;;;;;;15.24;76.35;99479.97;5082952;28;20323;-76
2023/09/01 03:45:53;;;;;;;8.77;5.93;;;;;;;15.24;76.66;99476.41;5083432;28;20060;-76
2023/09/01 03:48:18;;;;;;;15.40;5.90;;;;;;;15.24;76.27;99479.97;5082821;28;20206;-74
2023/09/01 03:50:43;;;;;;;13.30;6.40;;;;;;;15.24;76.08;99474.47;5082294;28;20765;-74
2023/09/01 03:53:09;;;;;;;13.30;6.40;;;;;;;15.16;76.25;99466.94;5083341;28;20340;-75
2023/09/01 03:55:34;;;;;;;11.10;6.17;;;;;;;15.07;76.57;99479.75;5082799;28;20278;-74
2023/09/01 03:58:00;;;;;;;9.75;5.53;;;;;;;15.07;76.81;99471.50;5082630;28;20273;-75
2023/09/01 04:00:25;;;;;;;9.05;5.07;;;;;;;15.07;76.94;99468.75;5082697;28;20310;-74
2023/09/01 04:02:51;;;;;;;9.85;5.13;;;;;;;15.12;77.08;99466.75;5083575;28;20032;-74
2023/09/01 04:05:16;;;;;;;10.23;5.20;;;;;;;15.20;77.34;99467.97;5082000;28;20086;-74
2023/09/01 04:07:41;;;;;;;11.03;5.17;;;;;;;15.25;77.23;99467.88;5083007;28;20637;-74
2023/09/01 04:10:07;;;;;;;10.50;4.50;;;;;;;15.32;77.61;99455.66;5082730;28;20253;-74
2023/09/01 04:12:34;;;;;;;10.82;5.35;;;;;;;15.40;77.44;99455.78;5083075;28;20115;-74
2023/09/01 04:14:59;;;;;;;10.23;4.25;;;;;;;15.41;77.35;99440.13;5081369;28;20421;-74
2023/09/01 04:17:25;;;;;;;10.05;4.75;;;;;;;15.44;77.17;99433.19;5082775;28;20040;-74
2023/09/01 04:19:50;;;;;;;10.15;5.25;;;;;;;15.43;76.74;99439.78;5082433;28;20032;-74
2023/09/01 04:22:15;;;;;;;14.75;6.38;;;;;;;15.35;76.57;99435.84;5082582;28;20031;-74
2023/09/01 04:24:41;;;;;;;13.93;6.47;;;;;;;15.32;76.62;99439.19;5082445;28;20086;-74
2023/09/01 04:27:06;;;;;;;18.67;5.35;;;;;;;15.34;77.34;99436.94;5083019;28;20125;-74
2023/09/01 04:29:31;;;;;;;10.57;5.47;;;;;;;15.38;77.81;99443.44;5082782;28;20068;-73
2023/09/01 04:31:56;;;;;;;7.88;4.22;;;;;;;15.43;77.97;99437.06;5086227;28;20472;-76
2023/09/01 04:34:22;;;;;;;8.70;4.03;;;;;;;15.48;78.66;99446.00;5085018;28;20032;-75
2023/09/01 04:36:50;;;;;;;14.07;5.13;;;;;;;15.60;78.00;99439.97;5086972;28;20344;-75
2023/09/01 04:39:17;;;;;;;10.50;3.83;;;;;;;15.66;78.06;99440.72;5086860;28;20038;-75
2023/09/01 04:41:42;;;;;;;9.38;3.83;;;;;;;15.71;78.19;99448.03;5086802;28;20036;-74
2023/09/01 04:44:08;;;;;;;10.93;3.78;;;;;;;15.73;78.58;99446.59;5086158;28;20047;-73
2023/09/01 04:46:33;;;;;;;10.27;4.03;;;;;;;15.78;78.25;99451.19;5086340;28;20072;-75
2023/09/01 04:48:58;;;;;;;9.43;4.47;;;;;;;15.83;78.19;99440.06;5086726;28;20271;-76
2023/09/01 04:51:23;;;;;;;9.17;4.10;;;;;;;15.89;78.03;99443.50;5086540;28;20265;-73
2023/09/01 04:53:49;;;;;;;8.93;4.28;;;;;;;15.90;77.74;99439.66;5086191;28;20253;-76
2023/09/01 04:56:14;;;;;;;10.90;4.53;;;;;;;15.88;78.25;99437.19;5086419;28;20036;-76
2023/09/01 04:58:39;;;;;;;13.43;4.32;;;;;;;15.90;78.41;99456.16;5086449;28;20042;-75
2023/09/01 05:01:05;;;;;;;7.72;4.38;;;;;;;15.94;78.25;99457.16;5086367;28;20123;-74
2023/09/01 05:03:30;;;;;;;11.85;4.07;;;;;;;15.96;78.48;99454.91;5086155;28;20073;-74
2023/09/01 05:05:57;;;;;;;7.82;2.97;;;;;;;15.97;78.33;99451.03;5085986;28;20133;-74
2023/09/01 05:08:23;;;;;;;12.63;5.53;;;;;;;16.00;78.34;99455.09;5086831;28;20128;-74
2023/09/01 05:10:50;;;;;;;9.38;4.80;;;;;;;15.97;78.14;99444.72;5085728;28;20134;-76
2023/09/01 05:13:15;;;;;;;6.25;3.95;;;;;;;15.97;78.61;99439.22;5085748;28;20031;-74
2023/09/01 05:15:41;;;;;;;9.07;4.15;;;;;;;16.05;78.79;99448.72;5085319;28;20101;-74
2023/09/01 05:18:06;;;;;;;7.60;3.70;;;;;;;16.06;78.85;99453.91;5085888;28;20023;-74
2023/09/01 05:20:31;;;;;;;7.22;3.42;;;;;;;16.06;78.89;99444.81;5086098;28;20272;-75
2023/09/01 05:22:58;;;;;;;11.68;4.47;;;;;;;16.15;78.92;99456.72;5086247;28;20036;-74
2023/09/01 05:25:23;;;;;;;8.13;3.92;;;;;;;16.16;78.73;99458.34;5085264;28;20433;-75
2023/09/01 05:27:48;;;;;;;12.00;4.88;;;;;;;16.14;79.25;99449.59;5085855;28;20039;-74
2023/09/01 05:30:13;;;;;;;7.35;3.40;;;;;;;16.05;79.64;99452.25;5085856;28;20362;-75
2023/09/01 05:32:39;;;;;;;9.05;4.43;;;;;;;16.08;80.13;99459.09;5085467;28;20074;-80
2023/09/01 05:35:05;;;;;;;9.15;3.03;;;;;;;16.15;79.75;99456.72;5086295;28;20111;-81
2023/09/01 05:37:30;;;;;;;6.13;3.15;;;;;;;16.20;79.59;99453.84;5086163;28;20127;-81
2023/09/01 05:39:56;;;;;;;9.27;4.32;;;;;;;16.20;79.73;99467.59;5085649;28;20150;-81
2023/09/01 05:42:21;;;;;;;8.45;3.78;;;;;;;16.32;79.50;99463.47;5085631;28;20107;-81
2023/09/01 05:44:46;;;;;;;8.88;3.97;;;;;;;16.26;79.60;99462.78;5084363;28;20118;-75
2023/09/01 05:47:12;;;;;;;9.05;3.88;;;;;;;16.30;79.53;99462.97;5085530;28;20036;-75
2023/09/01 05:49:37;;;;;;;7.05;3.50;;;;;;;16.29;80.09;99461.38;5086045;28;20039;-74
2023/09/01 05:52:03;;;;;;;7.75;3.72;;;;;;;16.32;80.09;99466.25;5084174;28;20089;-75
2023/09/01 05:54:28;;;;;;;14.55;3.85;;;;;;;16.39;79.88;99472.13;5085046;28;20392;-74
2023/09/01 05:56:53;;;;;;;5.32;3.25;;;;;;;16.40;79.91;99471.00;5085123;28;20024;-75
2023/09/01 05:59:19;;;;;;;11.52;3.20;;;;;;;16.45;79.59;99470.06;5084823;28;20469;-74
2023/09/01 06:01:44;;;;;;;7.40;3.58;;;;;;;16.45;79.36;99462.59;5085851;28;20039;-77
2023/09/01 06:04:10;;;;;;;6.82;3.78;;;;;;;16.50;79.45;99450.69;5084501;28;20035;-75
2023/09/01 06:06:35;;;;;;;8.48;3.50;;;;;;;16.48;79.60;99446.59;5085038;28;20173;-74
2023/09/01 06:09:05;;;;;;;8.18;3.65;;;;;;;16.49;79.78;99443.56;5085155;28;20214;-74
2023/09/01 06:11:31;;;;;;;8.77;3.67;;;;;;;16.53;79.41;99446.50;5085378;28;20463;-74
2023/09/01 06:13:56;;;;;;;5.03;2.65;;;;;;;16.58;79.51;99451.84;5084539;28;20044;-75
2023/09/01 06:16:22;;;;;;;8.48;3.50;;;;;;;16.67;79.44;99449.19;5084898;28;20443;-75
2023/09/01 06:18:47;;;;;;;5.63;3.10;;;;;;;16.74;79.33;99465.25;5085038;28;20024;-75
2023/09/01 06:21:16;;;;;;;9.00;3.97;;;;;;;16.76;79.23;99455.53;5084732;28;20043;-76
2023/09/01 06:23:44;;;;;;;6.70;3.72;;;;;;;16.81;79.52;99451.84;5084372;28;20067;-74
2023/09/01 06:26:17;;;;;;;10.82;4.07;;;;;;;16.85;79.31;99466.63;5084925;28;20078;-75
2023/09/01 06:28:44;;;;;;;11.10;4.13;;;;;;;16.91;79.09;99476.38;5087092;28;20114;-74
2023/09/01 06:31:09;;;;;;;11.32;5.70;;;;;;;16.90;79.40;99469.22;5092100;28;20032;-74
2023/09/01 06:33:35;;;;;;;8.75;3.55;;;;;;;16.96;79.40;99480.13;5092006;28;20028;-73
2023/09/01 06:36:00;;;;;;;8.32;3.70;;;;;;;17.01;79.18;99474.47;5091907;28;20020;-74
2023/09/01 06:38:26;;;;;;;6.80;3.03;;;;;;;17.06;79.11;99487.28;5091782;28;20078;-74
2023/09/01 06:40:51;;;;;;;5.32;2.83;;;;;;;17.10;78.91;99478.09;5092022;28;20248;-73
2023/09/01 06:43:16;;;;;;;7.40;3.13;;;;;;;17.15;78.83;99471.66;5092529;28;20036;-81
2023/09/01 06:45:42;;;;;;;6.07;3.30;;;;;;;17.14;78.75;99476.38;5092507;28;20347;-81
2023/09/01 06:48:07;;;;;;;5.60;3.07;;;;;;;17.14;79.07;99483.81;5093451;28;20268;-81
2023/09/01 06:50:32;;;;;;;6.57;3.50;;;;;;;17.15;79.06;99474.41;5084177;28;20683;-81
2023/09/01 06:52:58;;;;;;;10.23;3.08;;;;;;;17.17;78.94;99483.16;5088541;28;20280;-80
2023/09/01 06:55:23;;;;;;;6.55;2.88;;;;;;;17.23;79.08;99481.09;5089415;28;20465;-81
2023/09/01 06:57:49;;;;;;;5.00;2.88;;;;;;;17.27;78.95;99480.13;5092654;28;20024;-82
2023/09/01 07:00:14;;;;;;;9.03;3.10;;;;;;;17.31;78.80;99474.81;5094046;28;20082;-81
2023/09/01 07:02:40;;;;;;;7.13;2.80;;;;;;;17.30;79.25;99464.94;5094246;28;20257;-81
2023/09/01 07:05:05;;;;;;;7.03;3.20;;;;;;;17.30;79.37;99461.34;5091699;28;20024;-81
2023/09/01 07:07:31;;;;;;;5.93;2.53;;;;;;;17.33;79.09;99457.97;5092220;28;20056;-81
2023/09/01 07:09:56;;;;;;;5.93;2.80;;;;;;;17.31;79.31;99461.03;5093824;28;20108;-81
2023/09/01 07:12:21;;;;;;;6.80;2.78;;;;;;;17.34;79.28;99465.91;5093424;28;20253;-81
2023/09/01 07:14:46;;;;;;;7.87;3.20;;;;;;;17.38;79.31;99458.63;5092807;28;20039;-82
2023/09/01 07:17:12;;;;;;;6.83;4.20;;;;;;;17.38;79.11;99455.88;5093352;28;20712;-81
2023/09/01 07:19:37;;;;;;;5.95;3.08;;;;;;;17.42;79.26;99461.56;5093212;28;20260;-81
2023/09/01 07:22:05;;;;;;;7.05;2.65;;;;;;;17.45;79.01;99452.66;5091420;28;20032;-81
2023/09/01 07:24:30;;;;;;;7.10;2.67;;;;;;;17.50;79.33;99458.03;5088224;28;20049;-80
2023/09/01 07:26:55;;;;;;;6.88;3.08;;;;;;;17.44;79.48;99452.97;5085349;28;21281;-81
2023/09/01 07:29:21;;;;;;;5.27;2.40;;;;;;;17.46;79.49;99456.22;5090719;28;20040;-81
2023/09/01 07:31:46;;;;;;;5.80;2.93;;;;;;;17.50;79.13;99458.03;5090681;28;20249;-82
2023/09/01 07:34:12;;;;;;;5.10;2.90;;;;;;;17.55;78.94;99470.84;5090804;28;20286;-82
2023/09/01 07:36:37;;;;;;;8.30;3.05;;;;;;;17.53;79.23;99462.09;5087982;28;20036;-83
2023/09/01 07:39:02;;;;;;;7.77;2.70;;;;;;;17.56;79.37;99461.44;5089911;28;20096;-82
2023/09/01 07:41:28;;;;;;;5.90;2.33;;;;;;;17.57;79.44;99456.75;5090751;28;20249;-83
2023/09/01 07:43:53;;;;;;;6.38;2.63;;;;;;;17.62;79.13;99449.16;5090180;28;20031;-83
2023/09/01 07:46:18;;;;;;;4.38;2.38;;;;;;;17.60;79.20;99451.41;5088324;28;20039;-83
2023/09/01 07:48:44;;;;;;;5.20;2.08;;;;;;;17.59;79.59;99448.97;5091235;28;20370;-83
2023/09/01 07:51:09;;;;;;;6.18;2.72;;;;;;;17.62;79.74;99456.59;5088920;28;20126;-83
2023/09/01 07:53:34;;;;;;;5.25;1.88;;;;;;;17.58;79.67;99470.22;5090020;28;20031;-83
2023/09/01 07:55:59;;;;;;;3.03;1.80;;;;;;;17.58;79.57;99469.38;5090755;28;20036;-83
2023/09/01 07:58:25;;;;;;;4.33;2.50;;;;;;;17.59;79.72;99466.31;5090793;28;20387;-82
2023/09/01 08:00:52;;;;;;;5.90;1.90;;;;;;;17.59;79.66;99458.03;5089975;28;20257;-82
2023/09/01 08:03:17;;;;;;;3.70;2.15;;;;;;;17.58;79.60;99470.22;5090004;28;20580;-75
2023/09/01 08:05:42;;;;;;;6.60;2.17;;;;;;;17.56;79.62;99474.41;5084616;28;20062;-75
2023/09/01 08:08:08;;;;;;;6.85;1.75;;;;;;;17.60;79.76;99467.13;5081945;28;20047;-77
2023/09/01 08:10:33;;;;;;;4.43;1.98;;;;;;;17.60;79.97;99472.63;5082573;28;20143;-74
2023/09/01 08:12:59;;;;;;;4.35;1.95;;;;;;;17.69;79.79;99475.44;5082402;28;20036;-74
2023/09/01 08:15:24;;;;;;;5.60;2.20;;;;;;;17.71;79.66;99481.44;5081999;28;20501;-73
2023/09/01 08:17:50;;;;;;;4.73;1.70;;;;;;;17.66;79.74;99468.59;5082609;28;20123;-73
2023/09/01 08:20:17;;;;;;;6.38;2.03;;;;;;;17.71;79.84;99473.16;5081563;28;20264;-73
2023/09/01 08:22:42;;;;;;;21.27;3.28;;;;;;;17.74;79.81;99473.34;5083115;28;20132;-72
2023/09/01 08:25:09;;;;;;;5.22;2.10;;;;;;;17.82;79.63;99473.66;5081887;28;20122;-73
2023/09/01 08:27:34;;;;;;;5.93;1.92;;;;;;;17.77;80.09;99471.06;5082263;28;20069;-73
2023/09/01 08:29:59;;;;;;;3.88;1.92;;;;;;;17.85;79.56;99473.03;5081747;28;20028;-72
2023/09/01 08:32:25;;;;;;;5.57;1.92;;;;;;;17.83;79.65;99486.31;5081817;28;20039;-73
2023/09/01 08:34:50;;;;;;;6.30;2.40;;;;;;;17.89;79.12;99478.72;5081653;28;20116;-73
2023/09/01 08:37:16;;;;;;;11.33;2.60;;;;;;;17.95;79.15;99475.50;5081907;28;20382;-73
2023/09/01 08:39:42;;;;;;;4.70;2.13;;;;;;;18.00;79.21;99479.22;5082141;28;20284;-72
2023/09/01 08:42:08;;;;;;;5.18;1.63;;;;;;;18.02;79.32;99476.97;5081958;28;20473;-73
2023/09/01 08:44:35;;;;;;;12.55;2.22;;;;;;;18.05;79.26;99471.59;5081638;28;20113;-73
2023/09/01 08:47:01;;;;;;;4.60;1.95;;;;;;;18.09;79.41;99466.25;5082083;28;20055;-73
2023/09/01 08:49:27;;;;;;;3.17;1.50;;;;;;;17.99;79.32;99472.91;5082322;28;20489;-72
2023/09/01 08:51:55;;;;;;;1.80;0.98;;;;;;;18.02;79.40;99472.22;5082202;28;20873;-73
2023/09/01 08:54:20;;;;;;;4.78;2.08;;;;;;;18.05;79.13;99471.59;5081256;28;20266;-73
2023/09/01 08:56:45;;;;;;;3.00;1.40;;;;;;;18.05;78.99;99468.84;5082150;28;20036;-73
2023/09/01 08:59:11;;;;;;;2.33;1.25;;;;;;;18.12;78.87;99467.56;5081466;28;20383;-74
2023/09/01 09:01:37;;;;;;;3.13;1.38;;;;;;;18.14;79.15;99474.38;5081662;28;20048;-74
2023/09/01 09:04:03;;;;;;;3.58;1.33;;;;;;;18.15;79.00;99481.50;5081179;28;20097;-74
2023/09/01 09:06:33;;;;;;;5.55;1.70;;;;;;;18.17;78.92;99475.69;5081648;28;20056;-73
2023/09/01 09:09:15;;;;;;;1.95;1.20;;;;;;;18.23;78.53;99482.69;5081777;28;20040;-73
2023/09/01 09:12:13;;;;;;;3.30;1.42;;;;;;;18.26;78.80;99493.09;5081542;28;20119;-73
2023/09/01 09:14:46;;;;;;;4.10;1.45;;;;;;;18.26;78.79;99495.84;5046392;28;20173;-79
2023/09/01 09:17:11;;;;;;;2.73;1.20;;;;;;;18.22;79.59;99497.63;5083202;28;20390;-79
2023/09/01 09:19:50;;;;;;;2.23;1.20;;;;;;;18.23;79.51;99504.75;5084499;28;20107;-80
2023/09/01 09:22:15;;;;;;;3.90;1.52;;;;;;;18.23;79.54;99503.94;5086299;28;20269;-80
2023/09/01 09:24:41;;;;;;;2.47;1.27;;;;;;;18.19;80.75;99515.63;5083854;28;20069;-75
2023/09/01 09:27:06;;;;;;;3.72;1.42;;;;;;;18.18;80.37;99515.94;5084811;28;20326;-76
2023/09/01 09:29:40;;;;;;;4.10;1.60;;;;;;;18.09;81.10;99511.19;5085540;28;20439;-79
2023/09/01 09:32:24;;;;;;;4.55;1.48;;;;;;;18.11;80.66;99521.09;5084707;28;20040;-80
2023/09/01 09:35:09;;;;;;;2.90;1.67;;;;;;;18.08;81.40;99520.59;5085178;28;20052;-80
2023/09/01 09:37:36;;;;;;;3.00;1.40;;;;;;;18.06;81.92;99528.38;5085363;28;20039;-79
2023/09/01 09:40:16;;;;;;;4.63;1.55;;;;;;;18.01;82.21;99531.28;5084998;28;20030;-79
2023/09/01 09:42:43;;;;;;;2.72;1.20;;;;;;;18.00;82.34;99517.84;5085095;28;20043;-80
2023/09/01 09:45:32;;;;;;;2.88;1.58;;;;;;;17.97;82.27;99513.78;5083603;28;20036;-80
2023/09/01 09:47:59;;;;;;;5.50;2.03;;;;;;;18.00;82.49;99507.59;5085074;28;20131;-79
2023/09/01 09:50:25;;;;;;;2.95;1.60;;;;;;;17.96;82.98;99507.44;5084494;28;20039;-80
2023/09/01 09:52:56;;;;;;;7.45;1.65;;;;;;;17.96;83.13;99496.41;5085108;28;20040;-80
2023/09/01 09:55:28;;;;;;;5.47;2.53;;;;;;;17.94;83.34;99503.41;5084466;28;20092;-80
2023/09/01 09:57:59;;;;;;;4.57;2.00;;;;;;;17.93;83.53;99491.53;5085641;28;20075;-79
2023/09/01 10:00:29;;;;;;;3.65;1.33;;;;;;;17.91;83.76;99498.50;5085053;28;20499;-79
2023/09/01 10:03:00;;;;;;;5.03;1.95;;;;;;;17.86;84.05;99499.47;5085098;28;20032;-79
2023/09/01 10:05:29;;;;;;;7.05;2.17;;;;;;;17.85;84.09;99506.94;5084815;28;20448;-81
2023/09/01 10:07:57;;;;;;;3.92;1.63;;;;;;;17.88;84.20;99504.69;5084245;28;20500;-80
2023/09/01 10:10:24;;;;;;;1.65;1.00;;;;;;;17.87;84.32;99514.06;5084942;28;20047;-78
2023/09/01 10:12:50;;;;;;;4.00;1.50;;;;;;;17.85;84.37;99517.97;5085098;28;20492;-79
2023/09/01 10:15:17;;;;;;;5.00;1.50;;;;;;;17.89;84.50;99512.63;5083785;28;20046;-79
2023/09/01 10:17:43;;;;;;;2.55;1.23;;;;;;;17.91;84.51;99521.38;5084975;28;20115;-79
2023/09/01 10:20:09;;;;;;;4.50;1.23;;;;;;;17.88;84.81;99512.94;5084767;28;20032;-79
2023/09/01 10:22:44;;;;;;;6.45;1.23;;;;;;;17.83;85.19;99514.72;5084944;28;20039;-79
2023/09/01 10:25:18;;;;;;;6.30;1.80;;;;;;;17.84;85.11;99521.03;5083498;28;20504;-73
2023/09/01 10:28:06;;;;;;;3.58;0.90;;;;;;;17.81;85.18;99521.69;5083969;28;20046;-74
2023/09/01 10:30:37;;;;;;;5.00;1.48;;;;;;;17.80;85.56;99520.84;5084428;28;20055;-74
2023/09/01 10:33:04;;;;;;;2.65;0.82;;;;;;;17.81;85.58;99516.97;5084244;28;20040;-74
2023/09/01 10:35:40;;;;;;;2.83;1.00;;;;;;;17.79;85.80;99519.25;5084180;28;20039;-74
2023/09/01 10:38:13;;;;;;;3.42;0.73;;;;;;;17.82;85.57;99515.00;5083858;28;20047;-76
2023/09/01 10:40:49;;;;;;;2.30;0.90;;;;;;;17.80;85.52;99518.09;5084727;28;20400;-74
2023/09/01 10:43:33;;;;;;;2.00;0.80;;;;;;;17.79;85.78;99522.00;5084686;28;20024;-72
2023/09/01 10:46:16;;;;;;;1.02;0.63;;;;;;;17.80;85.76;99518.09;5084032;28;20120;-75
2023/09/01 10:48:54;;;;;;;1.80;0.77;;;;;;;17.83;86.11;99517.47;5084321;28;20094;-73
2023/09/01 10:51:25;;;;;;;2.30;0.70;;;;;;;17.81;86.33;99519.75;5084091;28;20124;-75
2023/09/01 10:54:01;;;;;;;4.60;1.33;;;;;;;17.83;86.29;99514.72;5082324;28;20040;-75
2023/09/01 10:56:27;;;;;;;2.42;0.80;;;;;;;17.89;86.31;99506.28;5084123;28;20449;-76
2023/09/01 10:58:54;;;;;;;2.95;0.70;;;;;;;17.91;86.10;99506.78;5084188;28;20034;-74
2023/09/01 11:01:31;;;;;;;1.30;0.43;;;;;;;17.94;86.27;99506.16;5083760;28;20074;-76
2023/09/01 11:04:16;;;;;;;1.95;0.80;;;;;;;17.94;86.29;99501.44;5083629;28;20052;-78
2023/09/01 11:06:56;;;;;;;3.67;0.50;;;;;;;17.93;86.21;99497.06;5082377;28;20059;-76
2023/09/01 11:09:33;;;;;;;2.05;0.68;;;;;;;17.99;86.52;99506.00;5083833;28;20044;-78
2023/09/01 11:12:06;;;;;;;1.60;0.50;;;;;;;17.99;86.87;99503.22;5084092;28;20040;-78
2023/09/01 11:14:32;;;;;;;2.73;0.50;;;;;;;18.04;86.83;99508.59;5083633;28;20108;-76
2023/09/01 11:17:00;;;;;;;2.55;0.50;;;;;;;18.11;86.43;99507.28;5083650;28;20075;-78
2023/09/01 11:19:25;;;;;;;2.25;0.55;;;;;;;18.16;86.60;99507.16;5083853;28;20043;-78
2023/09/01 11:21:51;;;;;;;2.35;1.00;;;;;;;18.16;86.76;99504.41;5083962;28;20036;-79
2023/09/01 11:24:20;;;;;;;1.35;0.40;;;;;;;18.18;86.30;99496.66;5083344;28;20552;-77
2023/09/01 11:26:45;;;;;;;1.58;0.50;;;;;;;18.22;86.60;99503.13;5083738;28;20953;-79
2023/09/01 11:29:12;;;;;;;2.47;0.80;;;;;;;18.27;86.49;99502.97;5083777;28;20039;-80
2023/09/01 11:31:38;;;;;;;1.88;1.10;;;;;;;18.31;86.81;99500.38;5083869;28;20115;-82